createdAt,value
2023-01-28T00:02:01.714Z,54.75
2023-01-28T00:04:37.102Z,54.35
2023-01-28T00:09:56.079Z,53.33
2023-01-28T00:12:29.741Z,56.03
2023-01-28T00:15:06.125Z,53.10
2023-01-28T00:17:41.419Z,53.35
2023-01-28T00:20:16.556Z,54.13
2023-01-28T00:22:55.735Z,52.93
2023-01-28T00:25:29.874Z,55.60
2023-01-28T00:28:05.873Z,51.53
2023-01-28T00:30:40.993Z,52.08
2023-01-28T00:33:16.911Z,52.67
2023-01-28T00:35:52.826Z,51.85
2023-01-28T00:38:26.544Z,52.65
2023-01-28T00:40:56.250Z,50.97
2023-01-28T00:43:30.066Z,51.45
2023-01-28T00:46:06.260Z,51.30
2023-01-28T00:51:17.430Z,50.65
2023-01-28T00:53:57.645Z,48.63
2023-01-28T00:56:34.152Z,52.22
2023-01-28T00:59:09.561Z,49.72
2023-01-28T01:01:46.535Z,51.45
2023-01-28T01:04:27.148Z,50.45
2023-01-28T01:06:57.777Z,51.63
2023-01-28T01:09:31.629Z,51.17
2023-01-28T01:12:05.824Z,50.33
2023-01-28T01:14:41.903Z,49.83
2023-01-28T01:19:53.210Z,51.90
2023-01-28T01:25:09.507Z,48.42
2023-01-28T01:27:44.394Z,50.10
2023-01-28T01:30:18.772Z,53.38
2023-01-28T01:33:02.711Z,51.42
2023-01-28T01:35:35.770Z,51.90
2023-01-28T01:38:11.774Z,54.85
2023-01-28T01:40:45.636Z,55.25
2023-01-28T01:43:22.835Z,53.83
2023-01-28T01:46:01.907Z,54.00
2023-01-28T01:48:38.041Z,55.45
2023-01-28T01:51:22.247Z,55.78
2023-01-28T01:53:55.698Z,56.60
2023-01-28T01:56:33.776Z,54.08
2023-01-28T01:59:05.925Z,54.08
2023-01-28T02:01:41.929Z,55.83
2023-01-28T02:04:42.733Z,53.58
2023-01-28T02:07:21.237Z,57.05
2023-01-28T02:09:56.516Z,54.13
2023-01-28T02:12:39.051Z,56.05
2023-01-28T02:15:30.886Z,53.92
2023-01-28T02:18:01.922Z,54.78
2023-01-28T02:21:01.256Z,53.08
2023-01-28T02:23:53.721Z,53.47
2023-01-28T02:26:44.734Z,52.47
2023-01-28T02:29:21.613Z,50.30
2023-01-28T02:31:58.853Z,51.78
2023-01-28T02:34:34.756Z,52.85
2023-01-28T02:37:16.673Z,52.13
2023-01-28T02:39:49.691Z,51.40
2023-01-28T02:42:51.890Z,50.72
2023-01-28T02:45:46.852Z,51.58
2023-01-28T02:48:17.868Z,50.75
2023-01-28T02:51:03.932Z,48.92
2023-01-28T02:53:57.753Z,49.00
2023-01-28T02:56:50.822Z,49.00
2023-01-28T02:59:34.686Z,50.20
2023-01-28T03:02:29.443Z,47.20
2023-01-28T03:05:18.670Z,46.67
2023-01-28T03:07:57.187Z,47.45
2023-01-28T03:13:24.855Z,46.45
2023-01-28T03:16:15.001Z,45.88
2023-01-28T03:19:11.533Z,46.00
2023-01-28T03:22:03.130Z,45.13
2023-01-28T03:24:57.759Z,45.92
2023-01-28T03:27:54.323Z,46.50
2023-01-28T03:30:51.435Z,45.83
2023-01-28T03:33:50.203Z,46.00
2023-01-28T03:36:43.140Z,45.95
2023-01-28T03:39:32.590Z,46.72
2023-01-28T03:42:05.922Z,46.70
2023-01-28T03:44:56.749Z,45.90
2023-01-28T03:47:29.710Z,44.85
2023-01-28T03:50:02.449Z,47.13
2023-01-28T03:52:48.713Z,46.72
2023-01-28T03:55:39.039Z,45.10
2023-01-28T03:58:09.437Z,47.00
2023-01-28T04:00:42.710Z,47.10
2023-01-28T04:03:18.533Z,46.60
2023-01-28T04:08:55.423Z,45.95
2023-01-28T04:11:57.659Z,46.15
2023-01-28T04:14:42.029Z,48.28
2023-01-28T04:17:26.414Z,44.88
2023-01-28T04:19:58.201Z,47.10
2023-01-28T04:22:33.991Z,47.60
2023-01-28T04:25:08.910Z,47.05
2023-01-28T04:27:43.120Z,47.25
2023-01-28T04:30:28.296Z,46.92
2023-01-28T04:33:21.189Z,46.75
2023-01-28T04:35:58.087Z,45.83
2023-01-28T04:38:45.795Z,46.13
2023-01-28T04:41:36.814Z,47.05
2023-01-28T04:44:33.004Z,47.33
2023-01-28T04:47:26.226Z,48.25
2023-01-28T04:50:20.588Z,45.83
2023-01-28T04:53:15.640Z,47.05
2023-01-28T04:56:05.396Z,46.10
2023-01-28T04:58:39.586Z,45.70
2023-01-28T05:01:21.935Z,46.33
2023-01-28T05:03:53.502Z,44.53
2023-01-28T05:06:29.821Z,47.08
2023-01-28T05:09:06.567Z,45.80
2023-01-28T05:11:41.852Z,47.08
2023-01-28T05:14:22.077Z,44.58
2023-01-28T05:17:05.909Z,44.75
2023-01-28T05:19:41.161Z,44.58
2023-01-28T05:22:28.601Z,44.90
2023-01-28T05:25:29.589Z,42.50
2023-01-28T05:28:01.633Z,42.95
2023-01-28T05:30:35.484Z,43.42
2023-01-28T05:33:05.507Z,42.70
2023-01-28T05:35:45.406Z,41.10
2023-01-28T05:38:21.847Z,40.05
2023-01-28T05:40:54.300Z,39.80
2023-01-28T05:43:26.738Z,40.08
2023-01-28T05:46:18.387Z,40.13
2023-01-28T05:49:11.180Z,39.53
2023-01-28T05:52:02.561Z,41.65
2023-01-28T05:54:37.795Z,39.33
2023-01-28T05:57:13.994Z,38.67
2023-01-28T05:59:49.530Z,37.13
2023-01-28T06:02:25.248Z,36.88
2023-01-28T06:05:02.300Z,36.60
2023-01-28T06:07:35.218Z,35.20
2023-01-28T06:10:05.407Z,34.65
2023-01-28T06:12:45.440Z,34.08
2023-01-28T06:15:37.977Z,33.33
2023-01-28T06:18:25.938Z,33.55
2023-01-28T06:20:59.144Z,33.30
2023-01-28T06:23:31.327Z,33.85
2023-01-28T06:26:01.418Z,31.95
2023-01-28T06:28:40.871Z,32.75
2023-01-28T06:31:17.772Z,31.20
2023-01-28T06:33:53.773Z,31.23
2023-01-28T06:36:29.895Z,31.00
2023-01-28T06:39:03.218Z,30.15
2023-01-28T06:41:35.107Z,29.15
2023-01-28T06:44:07.332Z,28.02
2023-01-28T06:46:37.087Z,27.73
2023-01-28T06:49:12.715Z,28.30
2023-01-28T06:51:46.816Z,26.27
2023-01-28T06:54:19.828Z,27.00
2023-01-28T06:56:59.923Z,26.77
2023-01-28T06:59:38.216Z,25.73
2023-01-28T07:02:13.507Z,25.73
2023-01-28T07:07:17.952Z,25.52
2023-01-28T07:09:52.520Z,24.70
2023-01-28T07:12:25.992Z,22.35
2023-01-28T07:15:01.353Z,23.02
2023-01-28T07:17:33.648Z,22.02
2023-01-28T07:20:08.467Z,22.83
2023-01-28T07:22:50.605Z,22.05
2023-01-28T07:25:26.194Z,22.50
2023-01-28T07:27:59.377Z,21.30
2023-01-28T07:30:36.314Z,21.23
2023-01-28T07:33:09.765Z,20.63
2023-01-28T07:35:46.046Z,21.30
2023-01-28T07:38:19.409Z,20.15
2023-01-28T07:40:51.402Z,19.77
2023-01-28T07:43:22.654Z,19.50
2023-01-28T07:45:54.352Z,20.33
2023-01-28T07:48:27.479Z,19.83
2023-01-28T07:50:59.791Z,18.23
2023-01-28T07:53:36.788Z,16.85
2023-01-28T07:56:13.044Z,18.17
2023-01-28T07:58:45.499Z,17.35
2023-01-28T08:01:21.322Z,17.30
2023-01-28T08:03:57.432Z,16.88
2023-01-28T08:06:29.873Z,17.58
2023-01-28T08:08:59.061Z,17.45
2023-01-28T08:11:30.444Z,16.55
2023-01-28T08:14:05.823Z,15.68
2023-01-28T08:16:34.953Z,15.38
2023-01-28T08:19:04.457Z,15.13
2023-01-28T08:21:33.526Z,15.88
2023-01-28T08:24:07.956Z,15.55
2023-01-28T08:26:38.702Z,14.55
2023-01-28T08:29:07.559Z,14.25
2023-01-28T08:31:39.256Z,14.60
2023-01-28T08:34:08.304Z,14.70
2023-01-28T08:36:37.156Z,13.73
2023-01-28T08:39:07.395Z,14.50
2023-01-28T08:41:36.243Z,13.65
2023-01-28T08:44:06.686Z,13.85
2023-01-28T08:46:35.653Z,13.48
2023-01-28T08:49:05.613Z,12.45
2023-01-28T08:51:35.470Z,12.95
2023-01-28T08:54:05.020Z,12.73
2023-01-28T08:56:34.252Z,13.15
2023-01-28T08:59:03.106Z,12.23
2023-01-28T09:01:32.270Z,12.27
2023-01-28T09:04:01.682Z,12.68
2023-01-28T09:06:31.725Z,12.55
2023-01-28T09:09:01.400Z,12.05
2023-01-28T09:11:30.740Z,11.77
2023-01-28T09:14:00.245Z,11.35
2023-01-28T09:16:29.794Z,11.55
2023-01-28T09:18:59.354Z,11.85
2023-01-28T09:21:29.617Z,11.73
2023-01-28T09:23:59.002Z,11.20
2023-01-28T09:26:28.088Z,11.32
2023-01-28T09:28:56.978Z,11.02
2023-01-28T09:31:26.685Z,10.98
2023-01-28T09:33:57.903Z,10.80
2023-01-28T09:36:27.581Z,11.02
2023-01-28T09:38:56.905Z,9.98
2023-01-28T09:41:30.735Z,9.48
2023-01-28T09:44:12.018Z,10.40
2023-01-28T09:46:43.564Z,9.95
2023-01-28T09:49:43.080Z,9.43
2023-01-28T09:52:17.337Z,9.75
2023-01-28T09:54:59.539Z,10.43
2023-01-28T09:57:52.462Z,9.38
2023-01-28T10:00:38.272Z,9.82
2023-01-28T10:03:26.701Z,9.60
2023-01-28T10:06:11.406Z,9.68
2023-01-28T10:08:59.375Z,9.38
2023-01-28T10:11:34.898Z,8.98
2023-01-28T10:14:28.550Z,9.38
2023-01-28T10:17:06.944Z,8.93
2023-01-28T10:19:42.681Z,8.93
2023-01-28T10:22:20.313Z,8.90
2023-01-28T10:24:55.921Z,8.38
2023-01-28T10:27:30.379Z,8.35
2023-01-28T10:30:01.151Z,8.18
2023-01-28T10:32:37.978Z,7.57
2023-01-28T10:35:07.756Z,9.00
2023-01-28T10:37:37.881Z,8.48
2023-01-28T10:40:08.049Z,8.20
2023-01-28T10:42:38.026Z,7.63
2023-01-28T10:45:10.442Z,8.23
2023-01-28T10:47:51.415Z,7.55
2023-01-28T10:50:25.991Z,8.15
2023-01-28T10:53:03.491Z,8.50
2023-01-28T10:55:55.961Z,7.95
2023-01-28T10:58:33.234Z,7.47
2023-01-28T11:01:03.947Z,7.60
2023-01-28T11:03:33.238Z,7.78
2023-01-28T11:06:02.524Z,7.75
2023-01-28T11:08:32.753Z,7.40
2023-01-28T11:11:01.931Z,7.70
2023-01-28T11:13:31.683Z,7.75
2023-01-28T11:16:05.059Z,7.60
2023-01-28T11:18:42.135Z,7.57
2023-01-28T11:21:21.560Z,7.75
2023-01-28T11:23:59.337Z,7.18
2023-01-28T11:26:33.536Z,7.45
2023-01-28T11:29:02.542Z,6.78
2023-01-28T11:31:32.007Z,7.05
2023-01-28T11:34:01.889Z,7.43
2023-01-28T11:36:32.386Z,7.78
2023-01-28T11:39:30.704Z,7.60
2023-01-28T11:42:26.185Z,7.68
2023-01-28T11:44:55.240Z,7.25
2023-01-28T11:47:34.964Z,6.97
2023-01-28T11:50:23.949Z,7.28
2023-01-28T11:53:17.018Z,7.07
2023-01-28T11:56:07.815Z,7.60
2023-01-28T11:58:47.844Z,7.35
2023-01-28T12:01:30.285Z,7.72
2023-01-28T12:04:10.030Z,8.07
2023-01-28T12:07:06.956Z,7.22
2023-01-28T12:09:51.755Z,8.00
2023-01-28T12:12:36.025Z,8.60
2023-01-28T12:15:32.011Z,8.73
2023-01-28T12:18:04.852Z,10.48
2023-01-28T12:20:46.414Z,11.43
2023-01-28T12:23:24.781Z,13.05
2023-01-28T12:26:31.586Z,14.02
2023-01-28T12:29:16.913Z,17.20
2023-01-28T12:31:58.628Z,19.42
2023-01-28T12:34:46.138Z,21.48
2023-01-28T12:37:26.629Z,25.50
2023-01-28T12:40:07.586Z,26.73
2023-01-28T12:42:40.897Z,29.70
2023-01-28T12:45:34.465Z,30.17
2023-01-28T12:48:18.942Z,32.95
2023-01-28T12:51:31.515Z,36.50
2023-01-28T12:54:34.309Z,39.63
2023-01-28T12:57:06.101Z,43.25
2023-01-28T12:59:47.333Z,44.13
2023-01-28T13:02:25.495Z,44.38
2023-01-28T13:05:23.894Z,47.85
2023-01-28T13:08:16.283Z,50.20
2023-01-28T13:10:57.034Z,51.22
2023-01-28T13:13:37.941Z,54.25
2023-01-28T13:16:09.545Z,52.42
2023-01-28T13:18:46.969Z,56.08
2023-01-28T13:21:27.945Z,58.47
2023-01-28T13:24:07.459Z,60.75
2023-01-28T13:26:42.417Z,57.92
2023-01-28T13:29:28.463Z,59.22
2023-01-28T13:31:59.553Z,58.83
2023-01-28T13:34:34.430Z,60.55
2023-01-28T13:37:40.869Z,58.83
2023-01-28T13:40:22.263Z,57.47
2023-01-28T13:43:03.350Z,58.60
2023-01-28T13:45:35.431Z,61.15
2023-01-28T13:48:22.168Z,60.15
2023-01-28T13:50:51.322Z,59.80
2023-01-28T13:53:50.101Z,59.08
2023-01-28T13:56:37.861Z,59.53
2023-01-28T13:59:33.571Z,58.20
2023-01-28T14:02:21.579Z,59.35
2023-01-28T14:05:03.149Z,59.03
2023-01-28T14:07:32.291Z,54.63
2023-01-28T14:10:27.449Z,56.03
2023-01-28T14:13:06.001Z,55.92
2023-01-28T14:15:48.514Z,54.63
2023-01-28T14:18:27.724Z,55.03
2023-01-28T14:21:04.233Z,54.75
2023-01-28T14:23:38.200Z,54.72
2023-01-28T14:26:13.973Z,52.72
2023-01-28T14:29:03.270Z,52.25
2023-01-28T14:31:38.076Z,50.25
2023-01-28T14:34:28.345Z,50.75
2023-01-28T14:37:11.458Z,49.42
2023-01-28T14:39:54.178Z,49.17
2023-01-28T14:42:30.269Z,49.97
2023-01-28T14:45:08.787Z,50.13
2023-01-28T14:47:45.539Z,49.40
2023-01-28T14:50:47.674Z,49.00
2023-01-28T14:53:33.684Z,49.42
2023-01-28T14:56:21.613Z,47.13
2023-01-28T14:58:58.531Z,45.37
2023-01-28T15:01:36.270Z,46.17
2023-01-28T15:04:32.517Z,44.60
2023-01-28T15:07:35.778Z,44.08
2023-01-28T15:10:33.734Z,44.95
2023-01-28T15:13:15.199Z,44.00
2023-01-28T15:15:53.904Z,43.13
2023-01-28T15:18:37.271Z,43.60
2023-01-28T15:21:16.647Z,42.33
2023-01-28T15:23:52.505Z,42.63
2023-01-28T15:26:26.887Z,41.83
2023-01-28T15:28:59.926Z,43.50
2023-01-28T15:31:31.470Z,44.42
2023-01-28T15:34:08.998Z,42.22
2023-01-28T15:36:42.226Z,39.40
2023-01-28T15:39:25.679Z,40.72
2023-01-28T15:42:05.858Z,40.22
2023-01-28T15:44:49.921Z,40.90
2023-01-28T15:47:33.107Z,39.88
2023-01-28T15:50:13.646Z,38.72
2023-01-28T15:52:45.941Z,39.13
2023-01-28T15:55:32.389Z,38.75
2023-01-28T16:00:50.641Z,39.85
2023-01-28T16:03:21.556Z,39.63
2023-01-28T16:06:09.219Z,40.55
2023-01-28T16:08:41.962Z,40.00
2023-01-28T16:11:16.894Z,39.03
2023-01-28T16:13:46.085Z,38.47
2023-01-28T16:16:21.027Z,39.50
2023-01-28T16:18:58.124Z,39.05
2023-01-28T16:21:48.977Z,38.50
2023-01-28T16:24:26.911Z,36.88
2023-01-28T16:27:01.051Z,37.85
2023-01-28T16:29:43.426Z,36.88
2023-01-28T16:32:38.220Z,35.50
2023-01-28T16:35:18.639Z,35.47
2023-01-28T16:37:48.782Z,37.10
2023-01-28T16:40:20.344Z,35.22
2023-01-28T16:42:56.502Z,36.30
2023-01-28T16:45:28.986Z,35.00
2023-01-28T16:48:05.494Z,35.55
2023-01-28T16:50:41.402Z,34.45
2023-01-28T16:53:36.084Z,35.05
2023-01-28T16:56:19.746Z,35.20
2023-01-28T16:59:02.347Z,34.75
2023-01-28T17:01:38.557Z,34.63
2023-01-28T17:04:12.256Z,35.40
2023-01-28T17:06:49.726Z,35.58
2023-01-28T17:09:19.356Z,34.63
2023-01-28T17:11:48.453Z,35.60
2023-01-28T17:14:17.466Z,34.15
2023-01-28T17:16:50.121Z,37.13
2023-01-28T17:19:19.632Z,36.20
2023-01-28T17:21:56.006Z,35.67
2023-01-28T17:24:32.321Z,37.42
2023-01-28T17:27:07.460Z,37.05
2023-01-28T17:29:39.468Z,38.40
2023-01-28T17:32:10.137Z,40.42
2023-01-28T17:34:45.022Z,39.83
2023-01-28T17:37:17.705Z,39.88
2023-01-28T17:39:58.974Z,41.30
2023-01-28T17:42:28.711Z,39.22
2023-01-28T17:45:04.368Z,40.20
2023-01-28T17:47:46.086Z,41.40
2023-01-28T17:50:22.338Z,44.92
2023-01-28T17:52:58.120Z,42.42
2023-01-28T17:55:33.624Z,43.33
2023-01-28T17:58:03.389Z,45.40
2023-01-28T18:00:33.943Z,44.75
2023-01-28T18:03:10.063Z,44.60
2023-01-28T18:08:27.654Z,44.45
2023-01-28T18:11:00.137Z,45.83
2023-01-28T18:13:38.305Z,44.45
2023-01-28T18:16:11.335Z,45.15
2023-01-28T18:18:43.571Z,43.60
2023-01-28T18:21:20.652Z,43.97
2023-01-28T18:23:57.840Z,43.63
2023-01-28T18:26:27.283Z,43.42
2023-01-28T18:28:58.916Z,42.63
2023-01-28T18:31:31.476Z,44.72
2023-01-28T18:34:05.964Z,42.00
2023-01-28T18:36:35.239Z,45.67
2023-01-28T18:39:04.147Z,44.13
2023-01-28T18:41:34.219Z,47.25
2023-01-28T18:44:09.118Z,48.55
2023-01-28T18:46:38.554Z,47.53
2023-01-28T18:49:13.224Z,48.95
2023-01-28T18:51:44.843Z,48.92
2023-01-28T18:54:17.969Z,48.50
2023-01-28T18:56:47.635Z,47.75
2023-01-28T18:59:18.168Z,49.88
2023-01-28T19:01:50.411Z,50.13
2023-01-28T19:04:20.311Z,48.85
2023-01-28T19:06:56.500Z,46.55
2023-01-28T19:12:06.687Z,44.88
2023-01-28T19:14:41.279Z,47.42
2023-01-28T19:17:14.536Z,44.08
2023-01-28T19:19:43.741Z,45.38
2023-01-28T19:22:12.996Z,45.13
2023-01-28T19:24:46.738Z,45.75
2023-01-28T19:27:16.311Z,43.97
2023-01-28T19:29:46.003Z,43.47
2023-01-28T19:32:18.105Z,43.13
2023-01-28T19:34:53.187Z,41.05
2023-01-28T19:37:33.745Z,41.22
2023-01-28T19:40:18.947Z,41.60
2023-01-28T19:42:52.053Z,41.65
2023-01-28T19:45:22.335Z,40.45
2023-01-28T19:47:56.158Z,40.22
2023-01-28T19:50:37.946Z,41.10
2023-01-28T19:53:10.900Z,41.17
2023-01-28T19:55:40.448Z,42.55
2023-01-28T19:58:16.426Z,41.08
2023-01-28T20:00:49.758Z,42.42
2023-01-28T20:03:19.683Z,42.78
2023-01-28T20:05:48.623Z,43.70
2023-01-28T20:08:17.669Z,43.47
2023-01-28T20:10:57.155Z,43.15
2023-01-28T20:13:29.804Z,41.70
2023-01-28T20:16:04.425Z,41.90
2023-01-28T20:18:37.387Z,43.20
2023-01-28T20:21:10.169Z,42.85
2023-01-28T20:23:45.797Z,43.72
2023-01-28T20:26:20.075Z,42.67
2023-01-28T20:28:52.143Z,42.97
2023-01-28T20:31:24.115Z,42.85
2023-01-28T20:33:53.913Z,42.17
2023-01-28T20:36:35.045Z,41.85
2023-01-28T20:39:13.443Z,42.95
2023-01-28T20:41:53.151Z,43.35
2023-01-28T20:44:33.022Z,45.78
2023-01-28T20:47:06.797Z,46.50
2023-01-28T20:49:42.245Z,45.22
2023-01-28T20:52:14.400Z,46.72
2023-01-28T20:54:44.234Z,44.75
2023-01-28T20:57:13.900Z,46.90
2023-01-28T20:59:45.891Z,48.05
2023-01-28T21:02:21.856Z,46.55
2023-01-28T21:07:37.891Z,45.10
2023-01-28T21:10:13.788Z,49.53
2023-01-28T21:12:53.538Z,46.83
2023-01-28T21:15:30.440Z,48.65
2023-01-28T21:18:05.068Z,47.35
2023-01-28T21:20:39.130Z,47.85
2023-01-28T21:23:14.156Z,46.38
2023-01-28T21:25:49.498Z,48.00
2023-01-28T21:28:19.430Z,46.90
2023-01-28T21:30:50.042Z,47.83
2023-01-28T21:33:19.583Z,47.05
2023-01-28T21:35:50.047Z,46.92
2023-01-28T21:38:19.688Z,47.85
2023-01-28T21:40:50.269Z,48.42
2023-01-28T21:43:19.659Z,48.83
2023-01-28T21:46:01.698Z,48.78
2023-01-28T21:48:37.616Z,49.17
2023-01-28T21:54:05.478Z,47.25
2023-01-28T21:56:49.001Z,47.20
2023-01-28T21:59:31.386Z,50.13
2023-01-28T22:02:02.600Z,47.78
2023-01-28T22:04:42.147Z,47.25
2023-01-28T22:07:13.918Z,47.22
2023-01-28T22:09:45.753Z,47.72
2023-01-28T22:12:20.275Z,48.22
2023-01-28T22:14:50.804Z,46.60
2023-01-28T22:17:20.364Z,46.60
2023-01-28T22:19:52.726Z,46.20
2023-01-28T22:22:21.907Z,46.15
2023-01-28T22:24:57.755Z,47.85
2023-01-28T22:27:30.149Z,46.15
2023-01-28T22:30:05.722Z,44.72
2023-01-28T22:32:41.465Z,46.25
2023-01-28T22:35:13.241Z,45.00
2023-01-28T22:37:47.015Z,48.08
2023-01-28T22:40:19.677Z,45.15
2023-01-28T22:42:50.251Z,46.33
2023-01-28T22:45:19.757Z,47.25
2023-01-28T22:47:50.867Z,46.28
2023-01-28T22:50:20.822Z,45.47
2023-01-28T22:52:54.399Z,47.85
2023-01-28T22:55:26.504Z,46.15
2023-01-28T22:58:00.888Z,45.08
2023-01-28T23:00:34.701Z,46.40
2023-01-28T23:03:08.652Z,48.53
2023-01-28T23:05:45.216Z,46.75
2023-01-28T23:08:18.685Z,45.40
2023-01-28T23:10:50.889Z,45.47
2023-01-28T23:13:21.556Z,45.20
2023-01-28T23:16:11.386Z,44.08
2023-01-28T23:19:04.045Z,43.80
2023-01-28T23:21:53.691Z,42.17
2023-01-28T23:24:33.211Z,40.80
2023-01-28T23:27:05.271Z,41.95
2023-01-28T23:29:46.610Z,41.17
2023-01-28T23:32:19.016Z,40.83
2023-01-28T23:34:52.039Z,41.55
2023-01-28T23:37:21.714Z,41.78
2023-01-28T23:39:58.351Z,39.97
2023-01-28T23:42:33.875Z,40.60
2023-01-28T23:45:09.386Z,40.22
2023-01-28T23:47:42.223Z,39.95
2023-01-28T23:50:18.193Z,40.35
2023-01-28T23:52:47.513Z,39.88
2023-01-28T23:55:19.770Z,39.95
2023-01-28T23:57:51.814Z,41.00
